Home   Weather   India   Jalpaiguri   Past weeks
Flag for India

Past Weather in Jalpaiguri, West Bengal, India — Yesterday and Last 2 Weeks

Currently: 57 °F. Fog. (Weather station: Lucknow / Amausi, India). See more current weather

Past Weather in Jalpaiguri — Graph

°F

Jalpaiguri Temperature Yesterday

Maximum temperature yesterday: 77 °F (at 2:00 pm)
Minimum temperature yesterday: 55 °F (at 2:30 am)
Average temperature yesterday: 65 °F

High & Low Weather Summary for the Past Weeks

 TemperatureHumidityPressure
High81 °F (Nov 21, 1:00 pm)100% (Nov 27, 1:30 am)30.07 "Hg (Nov 27, 1:30 am)
Low54 °F (Nov 24, 3:30 am)37% (Nov 22, 2:30 pm)29.80 "Hg (Nov 27, 2:00 pm)
Average66 °F78%29.93 "Hg
* Reported Nov 19 3:30 am — Dec 4 4:00 am, Jalpaiguri. Weather by CustomWeather, © 2022

Note: Actual official high and low records may vary slightly from our data, if they occured in-between our weather recording intervals... More about our weather records

Jalpaiguri Weather History for the Previous 24 Hours

Scroll right to see more
 ConditionsComfort  
Time TempWeatherWind HumidityBarometerVisibility
4:00 am
Sun, Dec 4
57 °FFog.No wind94%29.95 "Hg1 mi
3:30 am57 °FFog.No wind94%29.95 "Hg1 mi
3:00 am57 °FFog.No wind94%29.95 "Hg1 mi
2:30 am59 °FFog.No wind94%29.95 "Hg1 mi
2:00 am59 °FFog.No wind94%29.95 "Hg1 mi
1:30 am61 °FFog.No wind94%29.95 "Hg1 mi
1:00 am61 °FFog.No wind94%29.95 "Hg1 mi
12:30 am61 °FFog.No wind94%29.98 "Hg1 mi
12:00 am63 °FFog.No wind88%29.98 "Hg1 mi
11:30 pm
Sat, Dec 3
63 °FFog.No wind94%29.98 "Hg1 mi
10:30 pm64 °FFog.No wind88%29.98 "Hg1 mi
9:30 pm63 °FFog.No wind94%29.98 "Hg1 mi
9:00 pm63 °FFog.No wind94%29.98 "Hg1 mi
8:30 pm63 °FFog.No wind94%29.98 "Hg1 mi
8:00 pm64 °FFog.No wind88%29.95 "Hg1 mi
7:30 pm64 °FFog.No wind88%29.95 "Hg1 mi
7:00 pm66 °FFog.No wind83%29.95 "Hg1 mi
6:30 pm68 °FFog.No wind78%29.92 "Hg1 mi
6:00 pm70 °FHaze.No wind73%29.92 "Hg1 mi
5:30 pm73 °FHaze.No wind69%29.92 "Hg1 mi
5:00 pm73 °FHaze.No wind69%29.92 "Hg1 mi
4:00 pm77 °FHaze.No wind57%29.89 "Hg1 mi
3:30 pm77 °FHaze.No wind57%29.92 "Hg1 mi
3:00 pm77 °FHaze.No wind61%29.89 "Hg1 mi
2:30 pm77 °FHaze.No wind57%29.92 "Hg1 mi
2:00 pm77 °FHaze.No wind57%29.92 "Hg1 mi
1:30 pm75 °FHaze.2 mph61%29.92 "Hg1 mi
1:00 pm75 °FHaze.2 mph61%29.95 "Hg1 mi
12:30 pm75 °FHaze.2 mph61%29.95 "Hg1 mi
11:30 am72 °FFog.2 mph73%30.01 "Hg1 mi
11:00 am70 °FFog.No wind78%30.01 "Hg1 mi
10:30 am68 °FFog.No wind83%30.01 "Hg1 mi
10:00 am66 °FFog.No wind83%30.04 "Hg1 mi
9:30 am64 °FFog.No wind88%30.04 "Hg1 mi
9:00 am63 °FFog.No wind88%30.01 "Hg1 mi
8:30 am59 °FFog.No wind94%30.01 "Hg1 mi
7:30 am55 °FFog.No wind94%29.98 "Hg1 mi
7:00 am55 °FFog.No wind94%29.98 "Hg1 mi
6:30 am55 °FFog.No wind94%29.98 "Hg1 mi
5:00 am55 °FFog.No wind94%29.95 "Hg1 mi
Weather by CustomWeather, © 2022

See weather overview